createdAt,value
2017-09-21T00:00:12.839Z,21.83
2017-09-21T00:01:21.897Z,21.73
2017-09-21T00:02:31.866Z,21.8
2017-09-21T00:03:40.880Z,21.76
2017-09-21T00:04:50.536Z,21.7
2017-09-21T00:05:59.550Z,21.73
2017-09-21T00:07:08.244Z,21.73
2017-09-21T00:08:17.257Z,21.79
2017-09-21T00:09:26.589Z,21.72
2017-09-21T00:10:35.286Z,21.73
2017-09-21T00:11:44.323Z,21.77
2017-09-21T00:12:53.656Z,21.72
2017-09-21T00:14:02.673Z,21.73
2017-09-21T00:15:12.008Z,21.69
2017-09-21T00:16:21.024Z,21.77
2017-09-21T00:17:29.717Z,21.72
2017-09-21T00:18:38.733Z,21.73
2017-09-21T00:19:47.748Z,21.67
2017-09-21T00:20:56.765Z,21.72
2017-09-21T00:22:06.099Z,21.72
2017-09-21T00:23:15.113Z,21.75
2017-09-21T00:24:24.456Z,21.8
2017-09-21T00:25:33.792Z,21.75
2017-09-21T00:26:43.127Z,21.75
2017-09-21T00:27:52.140Z,21.72
2017-09-21T00:29:00.835Z,21.7
2017-09-21T00:30:09.531Z,21.66
2017-09-21T00:31:18.226Z,21.75
2017-09-21T00:32:27.240Z,21.7
2017-09-21T00:33:36.254Z,21.72
2017-09-21T00:34:45.270Z,21.67
2017-09-21T00:35:54.608Z,21.75
2017-09-21T00:37:03.951Z,21.7
2017-09-21T00:38:12.965Z,21.73
2017-09-21T00:39:21.659Z,21.7
2017-09-21T00:40:30.672Z,21.62
2017-09-21T00:41:39.686Z,21.76
2017-09-21T00:42:48.699Z,21.73
2017-09-21T00:43:58.038Z,21.67
2017-09-21T00:45:07.048Z,21.72
2017-09-21T00:46:16.062Z,21.69
2017-09-21T00:47:25.074Z,21.64
2017-09-21T00:48:33.768Z,21.69
2017-09-21T00:49:43.420Z,21.62
2017-09-21T00:50:52.753Z,21.64
2017-09-21T00:52:01.770Z,21.6
2017-09-21T00:53:11.106Z,21.6
2017-09-21T00:54:20.119Z,21.58
2017-09-21T00:55:29.135Z,21.62
2017-09-21T00:56:38.466Z,21.64
2017-09-21T00:57:47.485Z,21.64
2017-09-21T00:58:56.817Z,21.6
2017-09-21T01:00:05.511Z,21.62
2017-09-21T01:01:14.207Z,21.61
2017-09-21T01:02:22.895Z,21.62
2017-09-21T01:03:32.235Z,21.58
2017-09-21T01:04:40.931Z,21.57
2017-09-21T01:05:49.945Z,21.55
2017-09-21T01:06:58.638Z,21.57
2017-09-21T01:08:07.656Z,21.58
2017-09-21T01:09:16.350Z,21.61
2017-09-21T01:10:25.359Z,21.58
2017-09-21T01:11:34.054Z,21.58
2017-09-21T01:12:42.744Z,21.64
2017-09-21T01:13:52.393Z,21.57
2017-09-21T01:15:01.090Z,21.57
2017-09-21T01:16:10.106Z,21.58
2017-09-21T01:17:19.123Z,21.57
2017-09-21T01:18:28.137Z,21.58
2017-09-21T01:19:37.470Z,21.58
2017-09-21T01:20:47.124Z,21.58
2017-09-21T01:21:56.783Z,21.58
2017-09-21T01:23:05.477Z,21.58
2017-09-21T01:24:14.492Z,21.57
2017-09-21T01:25:23.826Z,21.52
2017-09-21T01:26:32.522Z,21.5
2017-09-21T01:27:41.858Z,21.5
2017-09-21T01:28:50.874Z,21.6
2017-09-21T01:29:59.891Z,21.67
2017-09-21T01:31:08.909Z,21.51
2017-09-21T01:32:18.247Z,21.54
2017-09-21T01:33:27.261Z,21.52
2017-09-21T01:34:35.957Z,21.57
2017-09-21T01:35:45.288Z,21.52
2017-09-21T01:36:53.985Z,21.57
2017-09-21T01:38:03.321Z,21.6
2017-09-21T01:39:12.337Z,21.5
2017-09-21T01:40:21.349Z,21.52
2017-09-21T01:41:30.364Z,21.54
2017-09-21T01:42:39.056Z,21.52
2017-09-21T01:43:47.749Z,21.55
2017-09-21T01:44:56.442Z,21.52
2017-09-21T01:46:05.456Z,21.46
2017-09-21T01:47:14.468Z,21.5
2017-09-21T01:48:23.483Z,21.45
2017-09-21T01:49:32.178Z,21.57
2017-09-21T01:50:41.533Z,21.52
2017-09-21T01:51:50.226Z,21.5
2017-09-21T01:52:59.240Z,21.54
2017-09-21T01:54:08.893Z,21.48
2017-09-21T01:55:17.914Z,21.51
2017-09-21T01:56:26.927Z,21.43
2017-09-21T01:57:35.626Z,21.45
2017-09-21T01:58:45.280Z,21.52
2017-09-21T01:59:53.978Z,21.48
2017-09-21T02:01:02.669Z,21.5
2017-09-21T02:02:12.007Z,21.45
2017-09-21T02:03:20.703Z,21.43
2017-09-21T02:04:29.716Z,21.45
2017-09-21T02:05:38.734Z,21.43
2017-09-21T02:06:48.069Z,21.43
2017-09-21T02:07:56.768Z,21.39
2017-09-21T02:09:05.781Z,21.4
2017-09-21T02:10:14.794Z,21.39
2017-09-21T02:11:23.809Z,21.4
2017-09-21T02:12:32.823Z,21.4
2017-09-21T02:13:41.842Z,21.45
2017-09-21T02:14:51.182Z,21.4
2017-09-21T02:16:00.515Z,21.45
2017-09-21T02:17:10.170Z,21.39
2017-09-21T02:18:19.506Z,21.39
2017-09-21T02:19:28.842Z,21.39
2017-09-21T02:20:37.856Z,21.4
2017-09-21T02:21:46.868Z,21.4
2017-09-21T02:22:56.208Z,21.42
2017-09-21T02:24:05.219Z,21.4
2017-09-21T02:25:14.553Z,21.37
2017-09-21T02:26:23.246Z,21.39
2017-09-21T02:27:32.263Z,21.39
2017-09-21T02:28:41.603Z,21.42
2017-09-21T02:29:50.622Z,21.39
2017-09-21T02:30:59.640Z,21.43
2017-09-21T02:32:08.976Z,21.32
2017-09-21T02:33:18.320Z,21.33
2017-09-21T02:34:27.339Z,21.36
2017-09-21T02:35:36.675Z,21.37
2017-09-21T02:36:45.692Z,21.39
2017-09-21T02:37:55.349Z,21.3
2017-09-21T02:39:05.007Z,21.37
2017-09-21T02:40:14.343Z,21.36
2017-09-21T02:41:24.003Z,21.4
2017-09-21T02:42:33.333Z,21.29
2017-09-21T02:43:42.346Z,21.3
2017-09-21T02:44:51.039Z,21.32
2017-09-21T02:45:59.733Z,21.3
2017-09-21T02:47:08.747Z,21.32
2017-09-21T02:48:17.762Z,21.32
2017-09-21T02:49:27.419Z,21.3
2017-09-21T02:50:36.115Z,21.27
2017-09-21T02:51:45.452Z,21.35
2017-09-21T02:52:55.107Z,21.33
2017-09-21T02:54:05.095Z,21.3
2017-09-21T02:55:14.109Z,21.3
2017-09-21T02:56:23.128Z,21.29
2017-09-21T02:57:31.822Z,21.27
2017-09-21T02:58:40.516Z,21.33
2017-09-21T02:59:49.847Z,21.2
2017-09-21T03:00:58.542Z,21.3
2017-09-21T03:02:07.235Z,21.33
2017-09-21T03:03:16.576Z,21.22
2017-09-21T03:04:25.585Z,21.22
2017-09-21T03:05:34.599Z,21.25
2017-09-21T03:06:43.931Z,21.22
2017-09-21T03:07:53.262Z,21.27
2017-09-21T03:09:02.278Z,21.22
2017-09-21T03:10:11.610Z,21.21
2017-09-21T03:11:20.624Z,21.24
2017-09-21T03:12:29.958Z,21.24
2017-09-21T03:13:38.972Z,21.21
2017-09-21T03:14:48.306Z,21.29
2017-09-21T03:15:57.001Z,21.29
2017-09-21T03:17:05.694Z,21.29
2017-09-21T03:18:14.387Z,21.22
2017-09-21T03:19:23.721Z,21.29
2017-09-21T03:20:33.696Z,21.25
2017-09-21T03:21:42.390Z,21.25
2017-09-21T03:22:51.086Z,21.22
2017-09-21T03:24:00.419Z,21.25
2017-09-21T03:25:09.112Z,21.22
2017-09-21T03:26:19.410Z,21.21
2017-09-21T03:27:29.382Z,21.22
2017-09-21T03:28:38.100Z,21.21
2017-09-21T03:29:46.796Z,21.25
2017-09-21T03:30:55.809Z,21.18
2017-09-21T03:32:04.823Z,21.2
2017-09-21T03:33:13.519Z,21.21
2017-09-21T03:34:22.217Z,21.22
2017-09-21T03:35:31.232Z,21.21
2017-09-21T03:36:39.926Z,21.18
2017-09-21T03:37:49.259Z,21.21
2017-09-21T03:38:58.274Z,21.18
2017-09-21T03:40:07.297Z,21.22
2017-09-21T03:41:15.991Z,21.17
2017-09-21T03:42:25.006Z,21.22
2017-09-21T03:43:33.702Z,21.22
2017-09-21T03:44:42.734Z,21.22
2017-09-21T03:45:52.070Z,21.15
2017-09-21T03:47:01.084Z,21.21
2017-09-21T03:48:09.778Z,21.2
2017-09-21T03:49:18.792Z,21.2
2017-09-21T03:50:28.447Z,21.17
2017-09-21T03:51:37.141Z,21.17
2017-09-21T03:52:46.476Z,21.21
2017-09-21T03:53:55.171Z,21.15
2017-09-21T03:55:04.189Z,21.22
2017-09-21T03:56:13.207Z,21.12
2017-09-21T03:57:21.901Z,21.17
2017-09-21T03:58:31.556Z,21.11
2017-09-21T03:59:40.889Z,21.07
2017-09-21T04:00:50.224Z,21.11
2017-09-21T04:01:59.560Z,21.17
2017-09-21T04:03:08.575Z,21.09
2017-09-21T04:04:17.587Z,21.11
2017-09-21T04:05:26.601Z,21.12
2017-09-21T04:06:35.309Z,21.11
2017-09-21T04:07:44.659Z,21.09
2017-09-21T04:08:53.671Z,21.11
2017-09-21T04:10:03.007Z,21.15
2017-09-21T04:11:12.669Z,21.21
2017-09-21T04:12:22.642Z,21.2
2017-09-21T04:13:31.656Z,21.21
2017-09-21T04:14:40.353Z,21.17
2017-09-21T04:15:49.048Z,21.22
2017-09-21T04:16:58.386Z,21.17
2017-09-21T04:18:07.403Z,21.2
2017-09-21T04:19:16.735Z,21.18
2017-09-21T04:20:26.395Z,21.18
2017-09-21T04:21:35.407Z,21.17
2017-09-21T04:22:44.423Z,21.2
2017-09-21T04:23:53.437Z,21.22
2017-09-21T04:25:02.451Z,21.18
2017-09-21T04:26:11.465Z,21.17
2017-09-21T04:27:20.486Z,21.22
2017-09-21T04:28:29.820Z,21.2
2017-09-21T04:29:39.159Z,21.21
2017-09-21T04:30:48.491Z,21.18
2017-09-21T04:31:57.184Z,21.21
2017-09-21T04:33:05.881Z,21.2
2017-09-21T04:34:15.215Z,21.17
2017-09-21T04:35:24.232Z,21.21
2017-09-21T04:36:33.566Z,21.24
2017-09-21T04:37:43.221Z,21.24
2017-09-21T04:38:52.234Z,21.22
2017-09-21T04:40:01.567Z,21.24
2017-09-21T04:41:10.589Z,21.24
2017-09-21T04:42:19.285Z,21.22
2017-09-21T04:43:27.980Z,21.25
2017-09-21T04:44:37.318Z,21.22
2017-09-21T04:45:46.653Z,21.27
2017-09-21T04:46:55.669Z,21.29
2017-09-21T04:48:05.045Z,21.22
2017-09-21T04:49:14.059Z,21.25
2017-09-21T04:50:23.084Z,21.24
2017-09-21T04:51:31.779Z,21.3
2017-09-21T04:52:40.794Z,21.24
2017-09-21T04:53:50.446Z,21.24
2017-09-21T04:54:59.460Z,21.32
2017-09-21T04:56:08.797Z,21.32
2017-09-21T04:57:17.492Z,21.3
2017-09-21T04:58:26.831Z,21.35
2017-09-21T04:59:35.527Z,21.37
2017-09-21T05:00:44.541Z,21.36
2017-09-21T05:01:53.884Z,21.32
2017-09-21T05:03:03.216Z,21.37
2017-09-21T05:04:11.911Z,21.25
2017-09-21T05:05:21.252Z,21.29
2017-09-21T05:06:30.587Z,21.36
2017-09-21T05:07:39.601Z,21.36
2017-09-21T05:08:48.932Z,21.35
2017-09-21T05:09:58.268Z,21.36
2017-09-21T05:11:07.922Z,21.39
2017-09-21T05:12:17.910Z,21.35
2017-09-21T05:13:26.931Z,21.4
2017-09-21T05:14:36.580Z,21.42
2017-09-21T05:15:45.915Z,21.42
2017-09-21T05:16:54.927Z,21.37
2017-09-21T05:18:03.942Z,21.42
2017-09-21T05:19:12.636Z,21.43
2017-09-21T05:20:21.330Z,21.43
2017-09-21T05:21:30.669Z,21.39
2017-09-21T05:22:39.363Z,21.46
2017-09-21T05:23:48.379Z,21.5
2017-09-21T05:24:57.075Z,21.4
2017-09-21T05:26:05.769Z,21.43
2017-09-21T05:27:14.461Z,21.4
2017-09-21T05:28:23.802Z,21.52
2017-09-21T05:29:33.141Z,21.48
2017-09-21T05:30:42.158Z,21.48
2017-09-21T05:31:50.852Z,21.52
2017-09-21T05:32:59.864Z,21.52
2017-09-21T05:34:09.197Z,21.51
2017-09-21T05:35:17.892Z,21.51
2017-09-21T05:36:27.232Z,21.52
2017-09-21T05:37:36.247Z,21.52
2017-09-21T05:38:44.942Z,21.58
2017-09-21T05:39:53.955Z,21.57
2017-09-21T05:41:02.967Z,21.55
2017-09-21T05:42:11.981Z,21.58
2017-09-21T05:43:20.995Z,21.62
2017-09-21T05:44:30.647Z,21.57
2017-09-21T05:45:39.659Z,21.62
2017-09-21T05:46:48.993Z,21.57
2017-09-21T05:47:58.652Z,21.62
2017-09-21T05:49:07.673Z,21.66
2017-09-21T05:50:16.694Z,21.67
2017-09-21T05:51:25.707Z,21.64
2017-09-21T05:52:34.720Z,21.69
2017-09-21T05:53:43.734Z,21.7
2017-09-21T05:54:52.429Z,21.72
2017-09-21T05:56:01.125Z,21.72
2017-09-21T05:57:10.458Z,21.69
2017-09-21T05:58:20.113Z,21.7
2017-09-21T05:59:28.807Z,21.7
2017-09-21T06:00:38.142Z,21.75
2017-09-21T06:01:47.154Z,21.75
2017-09-21T06:02:56.171Z,21.73
2017-09-21T06:04:05.507Z,21.73
2017-09-21T06:05:14.840Z,21.7
2017-09-21T06:06:24.493Z,21.73
2017-09-21T06:07:33.188Z,21.88
2017-09-21T06:08:42.521Z,21.72
2017-09-21T06:09:51.218Z,21.8
2017-09-21T06:11:00.554Z,21.79
2017-09-21T06:12:09.570Z,21.8
2017-09-21T06:13:18.262Z,21.85
2017-09-21T06:14:27.924Z,21.89
2017-09-21T06:15:36.939Z,21.82
2017-09-21T06:16:46.271Z,21.82
2017-09-21T06:17:55.605Z,21.85
2017-09-21T06:19:04.942Z,21.85
2017-09-21T06:20:13.958Z,21.95
2017-09-21T06:21:23.615Z,21.88
2017-09-21T06:22:32.950Z,21.92
2017-09-21T06:23:41.963Z,21.89
2017-09-21T06:24:51.621Z,21.89
2017-09-21T06:26:00.955Z,21.95
2017-09-21T06:27:09.968Z,21.96
2017-09-21T06:28:19.300Z,21.99
2017-09-21T06:29:27.999Z,21.98
2017-09-21T06:30:37.334Z,21.99
2017-09-21T06:31:46.350Z,22.04
2017-09-21T06:32:55.364Z,22.06
2017-09-21T06:34:04.700Z,22.04
2017-09-21T06:35:13.719Z,22.11
2017-09-21T06:36:23.381Z,22.07
2017-09-21T06:37:33.359Z,22.04
2017-09-21T06:38:42.053Z,22.17
2017-09-21T06:39:51.065Z,22.11
2017-09-21T06:41:00.080Z,22.23
2017-09-21T06:42:08.774Z,22.25
2017-09-21T06:43:17.790Z,22.13
2017-09-21T06:44:26.805Z,22.22
2017-09-21T06:45:35.824Z,22.28
2017-09-21T06:46:45.196Z,22.26
2017-09-21T06:47:54.213Z,22.25
2017-09-21T06:49:03.226Z,22.28
2017-09-21T06:50:12.238Z,22.32
2017-09-21T06:51:21.576Z,22.38
2017-09-21T06:52:30.272Z,22.41
2017-09-21T06:53:39.297Z,22.38
2017-09-21T06:54:48.628Z,22.38
2017-09-21T06:55:57.653Z,22.47
2017-09-21T06:57:06.666Z,22.44
2017-09-21T06:58:15.681Z,22.5
2017-09-21T06:59:24.697Z,22.54
2017-09-21T07:00:34.030Z,22.57
2017-09-21T07:01:42.723Z,22.55
2017-09-21T07:02:51.743Z,22.63
2017-09-21T07:04:00.437Z,22.63
2017-09-21T07:05:09.456Z,22.65
2017-09-21T07:06:19.112Z,22.7
2017-09-21T07:07:28.131Z,22.8
2017-09-21T07:08:37.467Z,22.7
2017-09-21T07:09:46.481Z,22.81
2017-09-21T07:10:55.815Z,22.83
2017-09-21T07:12:04.828Z,22.9
2017-09-21T07:13:14.161Z,22.91
2017-09-21T07:14:23.176Z,22.98
2017-09-21T07:15:32.191Z,23.02
2017-09-21T07:16:41.207Z,23.13
2017-09-21T07:17:50.222Z,23.24
2017-09-21T07:18:59.236Z,23.32
2017-09-21T07:20:07.932Z,23.4
2017-09-21T07:21:17.587Z,23.56
2017-09-21T07:22:26.920Z,23.59
2017-09-21T07:23:36.577Z,23.65
2017-09-21T07:24:45.597Z,23.74
2017-09-21T07:25:54.937Z,23.92
2017-09-21T07:27:04.275Z,24.02
2017-09-21T07:28:13.286Z,24.2
2017-09-21T07:29:22.308Z,24.2
2017-09-21T07:30:31.002Z,24.26
2017-09-21T07:31:40.339Z,24.45
2017-09-21T07:32:49.056Z,24.54
2017-09-21T07:33:58.073Z,24.61
2017-09-21T07:35:07.088Z,24.63
2017-09-21T07:36:16.744Z,24.84
2017-09-21T07:37:25.761Z,24.88
2017-09-21T07:38:34.778Z,25.03
2017-09-21T07:39:43.474Z,25.17
2017-09-21T07:40:53.128Z,25.21
2017-09-21T07:42:02.465Z,25.31
2017-09-21T07:43:11.480Z,25.35
2017-09-21T07:44:20.496Z,25.48
2017-09-21T07:45:29.512Z,25.6
2017-09-21T07:46:38.208Z,25.62
2017-09-21T07:47:47.228Z,25.78
2017-09-21T07:48:56.562Z,25.75
2017-09-21T07:50:05.258Z,25.93
2017-09-21T07:51:14.593Z,25.9
2017-09-21T07:52:23.609Z,25.88
2017-09-21T07:53:32.950Z,26.02
2017-09-21T07:54:42.298Z,26.09
2017-09-21T07:55:51.639Z,26.18
2017-09-21T07:57:00.336Z,26.19
2017-09-21T07:58:09.680Z,26.28
2017-09-21T07:59:18.376Z,26.33
2017-09-21T08:00:27.401Z,26.37
2017-09-21T08:01:36.738Z,26.36
2017-09-21T08:02:45.437Z,26.33
2017-09-21T08:03:55.101Z,26.47
2017-09-21T08:05:04.755Z,26.48
2017-09-21T08:06:14.101Z,26.48
2017-09-21T08:07:23.437Z,26.51
2017-09-21T08:08:32.134Z,26.48
2017-09-21T08:09:41.510Z,26.44
2017-09-21T08:10:50.209Z,26.47
2017-09-21T08:11:59.566Z,26.43
2017-09-21T08:13:09.224Z,26.45
2017-09-21T08:14:18.558Z,26.4
2017-09-21T08:15:27.893Z,26.41
2017-09-21T08:16:37.234Z,26.36
2017-09-21T08:17:45.933Z,26.36
2017-09-21T08:18:55.588Z,26.36
2017-09-21T08:20:04.925Z,26.31
2017-09-21T08:21:13.940Z,26.38
2017-09-21T08:22:22.959Z,26.29
2017-09-21T08:23:31.658Z,26.31
2017-09-21T08:24:40.996Z,26.29
2017-09-21T08:25:50.339Z,26.15
2017-09-21T08:26:59.677Z,26.25
2017-09-21T08:28:08.695Z,26.23
2017-09-21T08:29:17.715Z,26.18
2017-09-21T08:30:27.375Z,26.18
2017-09-21T08:31:36.390Z,26.21
2017-09-21T08:32:45.408Z,26.18
2017-09-21T08:33:55.067Z,26.18
2017-09-21T08:35:04.082Z,26.02
2017-09-21T08:36:13.100Z,26.1
2017-09-21T08:37:22.755Z,26.03
2017-09-21T08:38:32.127Z,26.06
2017-09-21T08:39:42.103Z,26.02
2017-09-21T08:40:51.447Z,26.03
2017-09-21T08:42:01.107Z,25.98
2017-09-21T08:43:10.127Z,26
2017-09-21T08:44:19.476Z,25.96
2017-09-21T08:45:28.493Z,25.98
2017-09-21T08:46:37.828Z,25.98
2017-09-21T08:47:46.843Z,25.95
2017-09-21T08:48:55.860Z,25.93
2017-09-21T08:50:04.559Z,25.98
2017-09-21T08:51:14.225Z,25.88
2017-09-21T08:52:23.566Z,25.93
2017-09-21T08:53:32.261Z,25.9
2017-09-21T08:54:40.960Z,25.84
2017-09-21T08:55:50.303Z,25.84
2017-09-21T08:56:59.318Z,25.88
2017-09-21T08:58:08.013Z,25.85
2017-09-21T08:59:17.357Z,25.9
2017-09-21T09:00:26.693Z,25.93
2017-09-21T09:01:35.716Z,25.98
2017-09-21T09:02:44.406Z,25.95
2017-09-21T09:03:53.427Z,25.93
2017-09-21T09:05:02.122Z,26.03
2017-09-21T09:06:10.819Z,26.02
2017-09-21T09:07:19.835Z,25.96
2017-09-21T09:08:28.851Z,26
2017-09-21T09:09:37.867Z,26.07
2017-09-21T09:10:46.566Z,26.03
2017-09-21T09:11:55.908Z,26.13
2017-09-21T09:13:04.922Z,26.16
2017-09-21T09:14:13.942Z,26.18
2017-09-21T09:15:22.638Z,26.18
2017-09-21T09:16:31.334Z,26.31
2017-09-21T09:17:40.348Z,26.26
2017-09-21T09:18:49.368Z,26.36
2017-09-21T09:19:58.385Z,26.41
2017-09-21T09:21:07.727Z,26.4
2017-09-21T09:22:16.749Z,26.47
2017-09-21T09:23:25.446Z,26.59
2017-09-21T09:24:34.463Z,26.7
2017-09-21T09:25:43.801Z,26.85
2017-09-21T09:26:53.140Z,27.08
2017-09-21T09:28:01.835Z,27.47
2017-09-21T09:29:11.170Z,27.8
2017-09-21T09:30:21.147Z,28.26
2017-09-21T09:31:30.486Z,28.69
2017-09-21T09:32:39.184Z,29.04
2017-09-21T09:33:47.884Z,29.45
2017-09-21T09:34:56.899Z,29.84
2017-09-21T09:36:05.918Z,30.27
2017-09-21T09:37:14.939Z,30.61
2017-09-21T09:38:23.955Z,30.85
2017-09-21T09:39:32.973Z,31.17
2017-09-21T09:40:41.991Z,31.46
2017-09-21T09:41:51.017Z,31.76
2017-09-21T09:43:00.675Z,32.11
2017-09-21T09:44:09.692Z,32.38
2017-09-21T09:45:18.393Z,32.67
2017-09-21T09:46:27.095Z,32.85
2017-09-21T09:47:36.117Z,33.09
2017-09-21T09:48:45.135Z,33.39
2017-09-21T09:49:54.155Z,33.58
2017-09-21T09:51:03.497Z,33.87
2017-09-21T09:52:12.516Z,34.13
2017-09-21T09:53:21.539Z,34.27
2017-09-21T09:54:30.564Z,34.57
2017-09-21T09:55:39.903Z,34.8
2017-09-21T09:56:49.248Z,35.02
2017-09-21T09:57:58.273Z,35.22
2017-09-21T09:59:07.295Z,35.46
2017-09-21T10:00:16.000Z,35.68
2017-09-21T10:01:24.703Z,35.9
2017-09-21T10:02:34.049Z,36.02
2017-09-21T10:03:43.071Z,36.16
2017-09-21T10:04:51.772Z,36.31
2017-09-21T10:06:01.112Z,36.57
2017-09-21T10:07:10.456Z,36.74
2017-09-21T10:08:19.477Z,36.89
2017-09-21T10:09:28.828Z,37.06
2017-09-21T10:10:38.820Z,37.26
2017-09-21T10:11:47.526Z,37.36
2017-09-21T10:12:56.546Z,37.56
2017-09-21T10:14:05.577Z,37.8
2017-09-21T10:15:14.280Z,37.9
2017-09-21T10:16:23.301Z,37.99
2017-09-21T10:17:32.963Z,38.24
2017-09-21T10:18:41.665Z,38.3
2017-09-21T10:19:50.688Z,38.5
2017-09-21T10:20:59.391Z,38.68
2017-09-21T10:22:08.730Z,38.8
2017-09-21T10:23:18.071Z,38.89
2017-09-21T10:24:26.771Z,38.96
2017-09-21T10:25:36.437Z,38.57
2017-09-21T10:26:45.465Z,38.55
2017-09-21T10:27:54.166Z,38.62
2017-09-21T10:29:02.870Z,38.73
2017-09-21T10:30:11.929Z,38.96
2017-09-21T10:31:20.916Z,39.11
2017-09-21T10:32:29.619Z,39.12
2017-09-21T10:33:38.324Z,39.04
2017-09-21T10:34:47.984Z,39.07
2017-09-21T10:35:57.009Z,39.3
2017-09-21T10:37:06.032Z,39.48
2017-09-21T10:38:14.740Z,39.58
2017-09-21T10:39:24.719Z,39.74
2017-09-21T10:40:34.062Z,39.83
2017-09-21T10:41:43.409Z,40
2017-09-21T10:42:52.434Z,40.23
2017-09-21T10:44:01.456Z,40.46
2017-09-21T10:45:10.163Z,40.61
2017-09-21T10:46:19.827Z,40.65
2017-09-21T10:47:29.171Z,40.59
2017-09-21T10:48:38.196Z,40.62
2017-09-21T10:49:46.905Z,40.78
2017-09-21T10:50:55.603Z,40.81
2017-09-21T10:52:05.265Z,41.06
2017-09-21T10:53:13.968Z,41.26
2017-09-21T10:54:22.991Z,41.4
2017-09-21T10:55:32.019Z,41.6
2017-09-21T10:56:41.045Z,41.72
2017-09-21T10:57:50.391Z,41.83
2017-09-21T10:58:59.415Z,41.98
2017-09-21T11:00:08.760Z,42.09
2017-09-21T11:01:18.104Z,42.14
2017-09-21T11:02:27.445Z,42.14
2017-09-21T11:03:36.472Z,42.2
2017-09-21T11:04:46.137Z,42.21
2017-09-21T11:05:55.161Z,42.2
2017-09-21T11:07:04.189Z,42.25
2017-09-21T11:08:13.850Z,42.24
2017-09-21T11:09:22.879Z,42.28
2017-09-21T11:10:31.585Z,42.21
2017-09-21T11:11:40.927Z,42.2
2017-09-21T11:12:49.630Z,42.2
2017-09-21T11:13:58.974Z,42.06
2017-09-21T11:15:08.316Z,41.97
2017-09-21T11:16:17.021Z,41.87
2017-09-21T11:17:25.723Z,41.77
2017-09-21T11:18:34.745Z,41.75
2017-09-21T11:19:43.771Z,41.72
2017-09-21T11:20:52.796Z,41.68
2017-09-21T11:22:02.138Z,41.71
2017-09-21T11:23:10.845Z,41.62
2017-09-21T11:24:19.549Z,41.68
2017-09-21T11:25:28.252Z,41.63
2017-09-21T11:26:37.592Z,41.62
2017-09-21T11:27:46.296Z,41.66
2017-09-21T11:28:55.956Z,41.78
2017-09-21T11:30:05.297Z,41.88
2017-09-21T11:31:13.999Z,42.02
2017-09-21T11:32:23.024Z,42.09
2017-09-21T11:33:32.050Z,42.31
2017-09-21T11:34:41.400Z,42.44
2017-09-21T11:35:50.423Z,42.51
2017-09-21T11:36:59.445Z,42.54
2017-09-21T11:38:08.472Z,42.66
2017-09-21T11:39:17.814Z,42.62
2017-09-21T11:40:26.838Z,42.81
2017-09-21T11:41:36.502Z,42.7
2017-09-21T11:42:45.204Z,42.82
2017-09-21T11:43:54.545Z,42.7
2017-09-21T11:45:03.246Z,42.63
2017-09-21T11:46:12.590Z,42.41
2017-09-21T11:47:21.941Z,42.25
2017-09-21T11:48:31.602Z,42.14
2017-09-21T11:49:40.627Z,42.02
2017-09-21T11:50:49.966Z,42.01
2017-09-21T11:51:59.634Z,41.95
2017-09-21T11:53:08.338Z,41.83
2017-09-21T11:54:18.009Z,41.52
2017-09-21T11:55:27.674Z,40.92
2017-09-21T11:56:36.379Z,40.09
2017-09-21T11:57:45.398Z,39.38
2017-09-21T11:58:54.746Z,38.4
2017-09-21T12:00:04.087Z,37.7
2017-09-21T12:01:13.431Z,36.98
2017-09-21T12:02:22.779Z,36.25
2017-09-21T12:03:31.801Z,35.86
2017-09-21T12:04:40.820Z,35.3
2017-09-21T12:05:50.806Z,34.77
2017-09-21T12:06:59.825Z,34.33
2017-09-21T12:08:08.849Z,34.03
2017-09-21T12:09:18.189Z,33.65
2017-09-21T12:10:28.172Z,33.36
2017-09-21T12:11:37.511Z,33.05
2017-09-21T12:12:46.533Z,32.77
2017-09-21T12:13:55.554Z,32.46
2017-09-21T12:15:04.576Z,32.19
2017-09-21T12:16:14.234Z,32
2017-09-21T12:17:22.935Z,31.74
2017-09-21T12:18:31.954Z,31.56
2017-09-21T12:19:40.652Z,31.37
2017-09-21T12:20:49.672Z,31.21
2017-09-21T12:21:58.695Z,30.99
2017-09-21T12:23:08.033Z,30.87
2017-09-21T12:24:17.056Z,30.78
2017-09-21T12:25:26.396Z,30.77
2017-09-21T12:26:35.409Z,30.55
2017-09-21T12:27:44.110Z,30.44
2017-09-21T12:28:52.811Z,30.31
2017-09-21T12:30:02.162Z,30.13
2017-09-21T12:31:11.509Z,30
2017-09-21T12:32:20.847Z,29.86
2017-09-21T12:33:29.546Z,29.82
2017-09-21T12:34:39.215Z,29.75
2017-09-21T12:35:48.587Z,29.61
2017-09-21T12:36:57.616Z,29.56
2017-09-21T12:38:06.640Z,29.41
2017-09-21T12:39:15.977Z,29.39
2017-09-21T12:40:25.957Z,29.34
2017-09-21T12:41:35.297Z,29.2
2017-09-21T12:42:44.315Z,29.13
2017-09-21T12:43:53.343Z,29.05
2017-09-21T12:45:02.695Z,28.93
2017-09-21T12:46:12.682Z,28.88
2017-09-21T12:47:22.019Z,28.88
2017-09-21T12:48:31.037Z,28.86
2017-09-21T12:49:40.059Z,28.75
2017-09-21T12:50:49.078Z,28.66
2017-09-21T12:51:58.746Z,28.63
2017-09-21T12:53:07.768Z,28.54
2017-09-21T12:54:16.788Z,28.44
2017-09-21T12:55:26.127Z,28.41
2017-09-21T12:56:35.145Z,28.37
2017-09-21T12:57:44.488Z,28.33
2017-09-21T12:58:53.507Z,28.15
2017-09-21T13:00:02.843Z,28.27
2017-09-21T13:01:11.542Z,28.14
2017-09-21T13:02:20.557Z,28.14
2017-09-21T13:03:30.220Z,28.07
2017-09-21T13:04:38.921Z,28
2017-09-21T13:05:48.260Z,28.04
2017-09-21T13:06:57.282Z,27.9
2017-09-21T13:08:06.301Z,27.89
2017-09-21T13:09:15.644Z,27.92
2017-09-21T13:10:24.662Z,27.9
2017-09-21T13:11:33.682Z,27.8
2017-09-21T13:12:42.701Z,27.83
2017-09-21T13:13:52.040Z,27.8
2017-09-21T13:15:01.378Z,27.74
2017-09-21T13:16:10.718Z,27.67
2017-09-21T13:17:20.057Z,27.75
2017-09-21T13:18:30.042Z,27.68
2017-09-21T13:19:38.740Z,27.65
2017-09-21T13:20:47.439Z,27.6
2017-09-21T13:21:56.458Z,27.54
2017-09-21T13:23:06.121Z,27.64
2017-09-21T13:24:15.471Z,27.55
2017-09-21T13:25:24.809Z,27.49
2017-09-21T13:26:33.826Z,27.51
2017-09-21T13:27:43.481Z,27.47
2017-09-21T13:28:52.501Z,27.54
2017-09-21T13:30:01.520Z,27.51
2017-09-21T13:31:10.856Z,27.44
2017-09-21T13:32:19.875Z,27.39
2017-09-21T13:33:29.214Z,27.42
2017-09-21T13:34:39.194Z,27.42
2017-09-21T13:35:48.210Z,27.35
2017-09-21T13:36:56.906Z,27.33
2017-09-21T13:38:05.925Z,27.33
2017-09-21T13:39:15.263Z,27.2
2017-09-21T13:40:23.960Z,27.21
2017-09-21T13:41:32.975Z,27.2
2017-09-21T13:42:41.674Z,27.17
2017-09-21T13:43:50.689Z,27.22
2017-09-21T13:44:59.706Z,27.15
2017-09-21T13:46:08.405Z,27.18
2017-09-21T13:47:17.750Z,27.14
2017-09-21T13:48:26.448Z,27.18
2017-09-21T13:49:35.468Z,27.11
2017-09-21T13:50:44.486Z,27.14
2017-09-21T13:51:53.499Z,27.1
2017-09-21T13:53:02.514Z,27.1
2017-09-21T13:54:11.533Z,27.02
2017-09-21T13:55:20.234Z,27.17
2017-09-21T13:56:29.253Z,27.1
2017-09-21T13:57:38.588Z,27.08
2017-09-21T13:58:47.283Z,26.96
2017-09-21T13:59:56.302Z,27
2017-09-21T14:01:05.960Z,26.89
2017-09-21T14:02:14.658Z,26.85
2017-09-21T14:03:23.679Z,26.89
2017-09-21T14:04:33.018Z,26.89
2017-09-21T14:05:41.717Z,26.88
2017-09-21T14:06:51.055Z,26.83
2017-09-21T14:08:00.390Z,26.81
2017-09-21T14:09:09.414Z,26.78
2017-09-21T14:10:18.759Z,26.81
2017-09-21T14:11:28.431Z,26.74
2017-09-21T14:12:37.134Z,26.74
2017-09-21T14:13:45.835Z,26.68
2017-09-21T14:14:55.501Z,26.63
2017-09-21T14:16:04.838Z,26.68
2017-09-21T14:17:14.171Z,26.6
2017-09-21T14:18:23.187Z,26.55
2017-09-21T14:19:31.886Z,26.56
2017-09-21T14:20:41.223Z,26.51
2017-09-21T14:21:49.922Z,26.58
2017-09-21T14:22:59.259Z,26.58
2017-09-21T14:24:08.276Z,26.44
2017-09-21T14:25:17.293Z,26.47
2017-09-21T14:26:25.992Z,26.44
2017-09-21T14:27:35.647Z,26.47
2017-09-21T14:28:44.991Z,26.41
2017-09-21T14:29:54.007Z,26.4
2017-09-21T14:31:03.023Z,26.4
2017-09-21T14:32:12.043Z,26.41
2017-09-21T14:33:21.381Z,26.36
2017-09-21T14:34:30.398Z,26.36
2017-09-21T14:35:39.731Z,26.34
2017-09-21T14:36:48.748Z,26.33
2017-09-21T14:37:57.447Z,26.33
2017-09-21T14:39:06.146Z,26.29
2017-09-21T14:40:14.844Z,26.31
2017-09-21T14:41:23.861Z,26.31
2017-09-21T14:42:33.871Z,26.19
2017-09-21T14:43:42.569Z,26.19
2017-09-21T14:44:51.267Z,26.21
2017-09-21T14:45:59.965Z,26.21
2017-09-21T14:47:08.664Z,26.15
2017-09-21T14:48:18.646Z,26.1
2017-09-21T14:49:27.662Z,26.16
2017-09-21T14:50:36.681Z,26.1
2017-09-21T14:51:45.379Z,26.09
2017-09-21T14:52:55.034Z,26.03
2017-09-21T14:54:04.372Z,26.05